Terminal Aerodrome Forecast
Issued by NWS

Home | Current Version | Previous Version | Text Only | Print | Product List | Glossary On
Versions: 1 2 3 4 5 6 7 8 9 10 11 12 13
000
FTUS45 KRIW 171300 AAA
TAFBPI
TAF AMD
KBPI 171345Z 1714/1812 VRB06KT P6SM VCTS SCT050CB BKN100
      TEMPO 1714/1716 VRB15G30KT 5SM -TSRA SCT030 BKN050CB BKN100
     FM171800 VRB10G15KT P6SM VCSH BKN100
     FM180200 35006KT P6SM SCT100 SCT140
     FM180500 VRB06KT P6SM FEW110=

USA.gov is the U.S. government's official web portal to all federal, state and local government web resources and services.